Time;durP1;ratioP1;P1;durP2;ratioP2;P2;SDS_P1;SDS_P2;PMS_P1;PMS_P2;Temp;Humidity;BMP_temperature;BMP_pressure;BME280_temperature;BME280_humidity;BME280_pressure;Samples;Min_cycle;Max_cycle;Signal;HPM_P1;HPM_P2
2022/04/08 00:01:06;;;;;;;11.15;1.80;;;4.80;99.90;;;;;;5002513;28;20045;-84
2022/04/08 00:03:32;;;;;;;11.60;1.40;;;4.70;99.90;;;;;;5017036;28;20095;-85
2022/04/08 00:05:58;;;;;;;10.93;1.80;;;4.80;99.90;;;;;;4998228;28;20507;-84
2022/04/08 00:08:24;;;;;;;10.52;1.70;;;4.80;99.90;;;;;;5014110;28;20053;-89
2022/04/08 00:10:50;;;;;;;11.18;1.55;;;4.80;99.90;;;;;;5004734;28;20057;-83
2022/04/08 00:13:17;;;;;;;11.18;1.50;;;4.80;99.90;;;;;;5012727;28;20053;-85
2022/04/08 00:15:43;;;;;;;9.85;1.60;;;4.80;99.90;;;;;;5003116;28;20068;-89
2022/04/08 00:18:09;;;;;;;15.32;1.45;;;4.80;99.90;;;;;;5019221;28;20483;-85
2022/04/08 00:20:35;;;;;;;11.68;1.80;;;4.80;99.90;;;;;;5018681;28;20056;-86
2022/04/08 00:23:02;;;;;;;6.78;1.08;;;4.80;99.90;;;;;;5015712;28;20100;-85
2022/04/08 00:25:28;;;;;;;10.73;2.30;;;4.80;99.90;;;;;;5015339;28;20049;-85
2022/04/08 00:27:54;;;;;;;5.75;0.90;;;4.70;99.90;;;;;;4999107;28;20046;-84
2022/04/08 00:30:19;;;;;;;8.00;1.85;;;4.70;99.90;;;;;;4998736;28;20046;-84
2022/04/08 00:32:45;;;;;;;9.32;1.10;;;4.70;99.90;;;;;;5014935;28;20049;-84
2022/04/08 00:35:11;;;;;;;10.85;1.40;;;4.60;99.90;;;;;;5003310;28;20089;-84
2022/04/08 00:37:37;;;;;;;9.55;0.93;;;4.70;99.90;;;;;;5034733;28;20479;-84
2022/04/08 00:40:03;;;;;;;10.45;1.98;;;4.70;99.90;;;;;;5029204;28;20054;-84
2022/04/08 00:42:29;;;;;;;9.50;1.52;;;4.70;99.90;;;;;;5018023;28;20399;-89
2022/04/08 00:44:55;;;;;;;10.15;0.88;;;4.70;99.90;;;;;;5018230;28;20041;-84
2022/04/08 00:47:20;;;;;;;11.15;1.38;;;4.70;99.90;;;;;;5018645;28;20054;-84
2022/04/08 00:49:46;;;;;;;7.63;1.08;;;4.60;99.90;;;;;;5017182;28;20050;-84
2022/04/08 00:52:13;;;;;;;6.38;0.80;;;4.60;99.90;;;;;;5014943;28;20550;-84
2022/04/08 00:54:40;;;;;;;2.92;0.80;;;4.60;99.90;;;;;;5007048;28;20483;-85
2022/04/08 00:57:06;;;;;;;7.93;0.88;;;4.60;99.90;;;;;;5002201;28;20052;-86
2022/04/08 00:59:32;;;;;;;6.93;0.90;;;4.50;99.90;;;;;;5034489;28;20136;-84
2022/04/08 01:02:00;;;;;;;7.43;0.90;;;4.40;99.90;;;;;;5019412;28;20041;-85
2022/04/08 01:04:27;;;;;;;5.20;0.75;;;4.40;99.90;;;;;;5037739;28;20163;-86
2022/04/08 01:06:54;;;;;;;3.72;0.80;;;4.30;99.90;;;;;;5002689;28;20041;-85
2022/04/08 01:09:21;;;;;;;10.00;1.40;;;4.30;99.90;;;;;;5033542;28;20528;-85
2022/04/08 01:11:47;;;;;;;4.43;0.77;;;4.20;99.90;;;;;;5017045;28;20045;-86
2022/04/08 01:14:14;;;;;;;4.18;0.65;;;4.20;99.90;;;;;;5030049;28;20057;-84
2022/04/08 01:16:40;;;;;;;6.97;1.35;;;4.20;99.90;;;;;;5000575;28;20364;-85
2022/04/08 01:19:07;;;;;;;5.95;1.10;;;4.10;99.90;;;;;;5010342;28;20045;-86
2022/04/08 01:21:33;;;;;;;5.03;1.00;;;4.20;99.90;;;;;;5014757;28;20042;-87
2022/04/08 01:23:59;;;;;;;6.90;1.02;;;4.20;99.90;;;;;;5025236;28;20395;-85
2022/04/08 01:26:26;;;;;;;8.23;2.38;;;4.10;99.90;;;;;;5016567;28;20386;-86
2022/04/08 01:28:53;;;;;;;10.30;1.33;;;4.10;99.90;;;;;;5033069;28;20053;-89
2022/04/08 01:31:18;;;;;;;8.45;1.75;;;4.00;99.90;;;;;;5000181;28;20056;-86
2022/04/08 01:33:44;;;;;;;6.40;1.25;;;3.90;99.90;;;;;;5029730;28;20053;-86
2022/04/08 01:36:10;;;;;;;6.45;1.17;;;3.70;99.90;;;;;;5031410;28;20042;-85
2022/04/08 01:38:36;;;;;;;7.85;0.73;;;3.60;99.90;;;;;;5014070;28;20046;-87
2022/04/08 01:41:02;;;;;;;3.88;1.08;;;3.50;99.90;;;;;;4998134;28;20054;-86
2022/04/08 01:43:28;;;;;;;8.98;1.25;;;3.50;99.90;;;;;;5027818;28;20046;-86
2022/04/08 01:45:54;;;;;;;8.85;1.10;;;3.50;99.90;;;;;;5029978;28;20060;-87
2022/04/08 01:48:19;;;;;;;5.15;1.08;;;3.40;99.90;;;;;;5014011;28;20120;-85
2022/04/08 01:50:45;;;;;;;9.27;1.23;;;3.50;99.90;;;;;;5012085;28;20640;-84
2022/04/08 01:53:13;;;;;;;5.03;0.93;;;3.40;99.90;;;;;;4979101;28;20045;-85
2022/04/08 01:55:39;;;;;;;9.60;1.30;;;3.40;99.90;;;;;;5028548;28;20045;-84
2022/04/08 01:58:05;;;;;;;6.63;1.15;;;3.40;99.90;;;;;;5013691;28;20048;-84
2022/04/08 02:00:31;;;;;;;7.60;1.20;;;3.30;99.90;;;;;;5013654;28;20056;-86
2022/04/08 02:02:57;;;;;;;9.00;1.55;;;3.30;99.90;;;;;;5013736;28;20045;-86
2022/04/08 02:05:23;;;;;;;8.52;1.90;;;3.20;99.90;;;;;;4994902;28;20133;-85
2022/04/08 02:07:49;;;;;;;11.50;1.38;;;3.20;99.90;;;;;;4993837;28;20455;-85
2022/04/08 02:10:15;;;;;;;11.90;1.58;;;3.20;99.90;;;;;;5027723;28;20700;-86
2022/04/08 02:12:42;;;;;;;10.48;1.33;;;3.10;99.90;;;;;;5013411;28;20064;-85
2022/04/08 02:15:08;;;;;;;11.18;1.90;;;3.10;99.90;;;;;;4999678;28;20041;-84
2022/04/08 02:17:34;;;;;;;9.55;1.55;;;3.00;99.90;;;;;;5032813;28;20041;-91
2022/04/08 02:20:00;;;;;;;12.93;1.60;;;2.90;99.90;;;;;;4999797;28;20641;-85
2022/04/08 02:22:29;;;;;;;9.00;1.38;;;2.90;99.90;;;;;;5015547;28;20043;-86
2022/04/08 02:24:56;;;;;;;5.43;1.27;;;2.80;99.90;;;;;;5007415;28;20510;-89
2022/04/08 02:27:23;;;;;;;9.27;1.00;;;2.70;99.90;;;;;;5013904;28;20148;-85
2022/04/08 02:29:49;;;;;;;11.13;1.50;;;2.60;99.90;;;;;;4999647;28;20139;-86
2022/04/08 02:32:15;;;;;;;11.52;1.80;;;2.70;99.90;;;;;;5016923;28;20059;-85
2022/04/08 02:34:41;;;;;;;9.25;1.20;;;2.60;99.90;;;;;;4999040;28;20453;-90
2022/04/08 02:37:07;;;;;;;13.18;1.25;;;2.60;99.90;;;;;;5037197;28;20087;-85
2022/04/08 02:39:33;;;;;;;7.07;1.20;;;2.60;99.90;;;;;;5026008;28;20505;-85
2022/04/08 02:41:59;;;;;;;10.73;1.13;;;2.60;99.90;;;;;;5014513;28;20083;-89
2022/04/08 02:44:25;;;;;;;11.73;1.10;;;2.60;99.90;;;;;;5026572;28;20072;-84
2022/04/08 02:46:51;;;;;;;11.35;1.90;;;2.70;99.90;;;;;;5031578;28;20041;-85
2022/04/08 02:49:16;;;;;;;7.28;1.40;;;2.90;99.90;;;;;;5017079;28;20087;-86
2022/04/08 02:51:42;;;;;;;7.90;1.67;;;2.80;99.90;;;;;;5013923;28;20041;-85
2022/04/08 02:54:08;;;;;;;10.25;1.58;;;2.80;99.90;;;;;;4999781;28;20044;-85
2022/04/08 02:56:33;;;;;;;10.27;1.55;;;2.80;99.90;;;;;;5025609;28;20044;-86
2022/04/08 02:59:00;;;;;;;8.05;1.23;;;2.80;99.90;;;;;;5028029;28;20055;-86
2022/04/08 03:01:27;;;;;;;10.00;2.65;;;2.80;99.90;;;;;;5031881;28;20116;-86
2022/04/08 03:03:53;;;;;;;11.82;2.08;;;2.90;99.90;;;;;;5010486;28;20052;-86
2022/04/08 03:06:19;;;;;;;11.00;1.83;;;2.90;99.90;;;;;;5015850;28;20478;-86
2022/04/08 03:08:45;;;;;;;6.28;1.40;;;2.80;99.90;;;;;;5010722;28;20068;-85
2022/04/08 03:11:10;;;;;;;11.48;1.80;;;2.90;99.90;;;;;;5016319;28;20060;-84
2022/04/08 03:13:36;;;;;;;13.02;3.40;;;3.00;99.90;;;;;;4999692;28;20062;-86
2022/04/08 03:16:02;;;;;;;10.25;1.40;;;3.00;99.90;;;;;;4993897;28;20080;-85
2022/04/08 03:18:28;;;;;;;14.18;2.28;;;2.90;99.90;;;;;;4992718;28;20041;-85
2022/04/08 03:20:54;;;;;;;8.82;1.83;;;2.80;99.90;;;;;;4998889;28;20478;-85
2022/04/08 03:23:19;;;;;;;15.00;1.80;;;2.80;99.90;;;;;;5011120;28;20052;-84
2022/04/08 03:25:45;;;;;;;12.15;1.92;;;2.70;99.90;;;;;;5008245;28;20490;-85
2022/04/08 03:28:11;;;;;;;18.60;1.75;;;2.60;99.90;;;;;;4996740;28;20483;-85
2022/04/08 03:30:37;;;;;;;16.25;2.28;;;2.60;99.90;;;;;;4996550;28;20509;-85
2022/04/08 03:33:03;;;;;;;10.07;1.63;;;2.60;99.90;;;;;;4978951;28;20044;-85
2022/04/08 03:35:29;;;;;;;12.02;1.60;;;2.60;99.90;;;;;;5028085;28;20052;-85
2022/04/08 03:37:54;;;;;;;8.15;1.38;;;2.60;99.90;;;;;;4998900;28;20045;-86
2022/04/08 03:40:20;;;;;;;10.05;1.20;;;2.60;99.90;;;;;;5015527;28;20107;-85
2022/04/08 03:42:46;;;;;;;16.77;2.42;;;2.70;99.90;;;;;;5021955;28;20126;-87
2022/04/08 03:45:13;;;;;;;16.13;1.98;;;2.70;99.90;;;;;;5023672;28;20046;-84
2022/04/08 03:47:39;;;;;;;12.30;1.90;;;2.70;99.90;;;;;;5024565;28;20134;-84
2022/04/08 03:50:05;;;;;;;12.27;1.63;;;2.60;99.90;;;;;;4993096;28;20069;-85
2022/04/08 03:52:34;;;;;;;14.90;2.42;;;2.60;99.90;;;;;;5019428;28;20118;-85
2022/04/08 03:55:01;;;;;;;19.13;2.50;;;2.70;99.90;;;;;;5015915;28;20120;-85
2022/04/08 03:57:27;;;;;;;14.88;2.03;;;2.70;99.90;;;;;;5027670;28;20041;-85
2022/04/08 03:59:53;;;;;;;19.58;2.75;;;2.80;99.90;;;;;;5014964;28;20049;-86
2022/04/08 04:02:20;;;;;;;19.17;1.92;;;3.00;99.90;;;;;;5014424;28;20053;-86
2022/04/08 04:04:49;;;;;;;9.65;2.08;;;3.00;99.90;;;;;;5028919;28;20055;-85
2022/04/08 04:07:15;;;;;;;19.75;3.25;;;3.00;99.90;;;;;;5017351;28;20127;-86
2022/04/08 04:09:40;;;;;;;10.75;2.53;;;3.00;99.90;;;;;;5017450;28;20135;-84
2022/04/08 04:12:08;;;;;;;10.02;1.73;;;2.80;99.90;;;;;;5017716;28;20049;-84
2022/04/08 04:14:33;;;;;;;3.58;1.10;;;2.80;99.90;;;;;;5033096;28;20072;-86
2022/04/08 04:16:59;;;;;;;1.95;1.10;;;2.70;99.90;;;;;;4990608;28;20080;-84
2022/04/08 04:19:25;;;;;;;5.38;1.60;;;2.70;99.90;;;;;;5010356;28;20044;-84
2022/04/08 04:21:51;;;;;;;3.15;1.15;;;2.60;99.90;;;;;;5015527;28;20044;-85
2022/04/08 04:24:16;;;;;;;4.28;1.45;;;2.60;99.90;;;;;;5023357;28;20049;-86
2022/04/08 04:26:42;;;;;;;4.15;1.35;;;2.60;99.90;;;;;;5015024;28;20382;-85
2022/04/08 04:29:08;;;;;;;5.53;1.50;;;2.50;99.90;;;;;;5011019;28;20558;-84
2022/04/08 04:31:33;;;;;;;2.42;1.05;;;2.40;99.90;;;;;;4997476;28;20073;-85
2022/04/08 04:33:59;;;;;;;4.50;1.33;;;2.40;99.90;;;;;;4998203;28;20056;-85
2022/04/08 04:36:25;;;;;;;5.25;1.40;;;2.40;99.90;;;;;;5007486;28;20056;-84
2022/04/08 04:38:50;;;;;;;8.20;1.52;;;2.30;99.90;;;;;;5012893;28;20053;-84
2022/04/08 04:41:17;;;;;;;3.85;1.38;;;2.30;99.90;;;;;;5027127;28;20052;-85
2022/04/08 04:43:43;;;;;;;4.30;1.50;;;2.20;99.90;;;;;;5011153;28;20096;-84
2022/04/08 04:46:09;;;;;;;4.22;2.00;;;2.10;99.90;;;;;;5014006;28;20095;-83
2022/04/08 04:48:35;;;;;;;6.32;2.00;;;2.10;99.90;;;;;;4999840;28;20045;-83
2022/04/08 04:51:00;;;;;;;7.30;1.58;;;2.20;99.90;;;;;;4992354;28;20057;-83
2022/04/08 04:53:26;;;;;;;5.70;1.60;;;2.10;99.90;;;;;;5012261;28;20045;-84
2022/04/08 04:55:54;;;;;;;5.45;2.10;;;2.00;99.90;;;;;;4991543;28;20044;-85
2022/04/08 04:58:20;;;;;;;4.07;1.60;;;2.10;99.90;;;;;;5001977;28;20041;-83
2022/04/08 05:00:46;;;;;;;4.57;1.48;;;2.00;99.90;;;;;;5035035;28;20059;-89
2022/04/08 05:03:13;;;;;;;6.45;2.13;;;2.00;99.90;;;;;;5007435;28;20045;-83
2022/04/08 05:05:39;;;;;;;2.75;1.50;;;1.90;99.90;;;;;;4994078;28;20068;-83
2022/04/08 05:08:07;;;;;;;9.80;1.77;;;2.00;99.90;;;;;;5002474;28;20045;-84
2022/04/08 05:10:32;;;;;;;3.22;1.50;;;2.00;99.90;;;;;;5019711;28;20103;-84
2022/04/08 05:13:01;;;;;;;7.15;1.90;;;2.00;99.90;;;;;;5002355;28;20072;-84
2022/04/08 05:15:28;;;;;;;5.60;1.90;;;2.10;99.90;;;;;;5030921;28;20048;-85
2022/04/08 05:17:54;;;;;;;5.28;2.15;;;2.20;99.90;;;;;;5016895;28;20057;-83
2022/04/08 05:20:20;;;;;;;5.43;1.90;;;2.40;99.90;;;;;;5034259;28;20041;-83
2022/04/08 05:22:46;;;;;;;6.88;2.17;;;2.40;99.90;;;;;;5018281;28;20041;-84
2022/04/08 05:25:12;;;;;;;6.22;2.10;;;2.60;99.90;;;;;;5000801;28;20448;-82
2022/04/08 05:27:38;;;;;;;6.15;1.75;;;2.90;99.90;;;;;;5018198;28;20049;-84
2022/04/08 05:30:06;;;;;;;8.80;1.95;;;2.90;99.90;;;;;;5009660;28;20049;-83
2022/04/08 05:32:32;;;;;;;4.72;2.28;;;2.90;99.90;;;;;;5035291;28;20514;-82
2022/04/08 05:34:57;;;;;;;7.80;1.70;;;2.90;99.90;;;;;;5017571;28;20072;-82
2022/04/08 05:37:23;;;;;;;7.53;2.00;;;2.90;99.90;;;;;;5018881;28;20083;-82
2022/04/08 05:39:49;;;;;;;5.18;1.98;;;2.90;99.90;;;;;;4998766;28;20056;-85
2022/04/08 05:42:14;;;;;;;10.75;2.10;;;2.80;99.90;;;;;;5010369;28;20478;-82
2022/04/08 05:44:40;;;;;;;9.95;1.73;;;2.80;99.90;;;;;;5039419;28;20111;-82
2022/04/08 05:47:06;;;;;;;9.00;2.25;;;3.00;99.90;;;;;;5014821;28;20482;-84
2022/04/08 05:49:31;;;;;;;7.15;2.10;;;2.90;99.90;;;;;;5017088;28;20442;-85
2022/04/08 05:51:57;;;;;;;9.18;2.30;;;2.90;99.90;;;;;;5032141;28;20037;-84
2022/04/08 05:54:22;;;;;;;9.55;2.15;;;2.90;99.90;;;;;;5010586;28;20069;-86
2022/04/08 05:56:48;;;;;;;7.28;1.83;;;3.00;99.90;;;;;;5000677;28;20052;-85
2022/04/08 05:59:14;;;;;;;5.88;2.20;;;2.90;99.90;;;;;;5017534;28;20041;-88
2022/04/08 06:01:39;;;;;;;6.80;2.03;;;3.00;99.90;;;;;;5017923;28;20036;-88
2022/04/08 06:04:05;;;;;;;10.50;2.83;;;2.90;99.90;;;;;;5008038;28;20049;-89
2022/04/08 06:06:31;;;;;;;7.68;2.25;;;3.10;99.90;;;;;;4995526;28;20042;-89
2022/04/08 06:08:57;;;;;;;5.53;2.10;;;3.20;99.90;;;;;;5005148;28;20506;-87
2022/04/08 06:11:22;;;;;;;5.93;2.10;;;3.20;99.90;;;;;;5018479;28;20049;-87
2022/04/08 06:13:48;;;;;;;6.38;2.30;;;3.40;99.90;;;;;;5018139;28;20037;-87
2022/04/08 06:16:14;;;;;;;6.80;2.25;;;3.50;99.90;;;;;;5004186;28;20100;-86
2022/04/08 06:18:39;;;;;;;5.68;2.22;;;3.80;99.90;;;;;;5015284;28;20406;-88
2022/04/08 06:21:05;;;;;;;4.22;2.28;;;3.90;99.90;;;;;;4998861;28;20156;-87
2022/04/08 06:23:31;;;;;;;6.55;2.35;;;3.90;99.90;;;;;;5021824;28;20048;-87
2022/04/08 06:25:57;;;;;;;4.70;1.75;;;4.00;99.90;;;;;;5027904;28;20056;-88
2022/04/08 06:28:25;;;;;;;3.97;1.60;;;3.90;99.90;;;;;;5002911;28;20102;-87
2022/04/08 06:30:58;;;;;;;4.10;2.47;;;3.90;99.90;;;;;;5034828;28;20045;-87
2022/04/08 06:33:24;;;;;;;4.55;2.08;;;3.70;99.90;;;;;;5013016;28;20072;-88
2022/04/08 06:35:52;;;;;;;5.07;2.67;;;3.60;99.90;;;;;;5011081;28;20122;-87
2022/04/08 06:38:27;;;;;;;5.88;1.80;;;3.50;99.90;;;;;;5011335;28;20045;-88
2022/04/08 06:40:55;;;;;;;6.00;2.40;;;3.50;99.90;;;;;;5019997;28;20091;-92
2022/04/08 06:43:27;;;;;;;4.28;1.75;;;3.50;99.90;;;;;;4999035;28;20453;-89
2022/04/08 06:45:55;;;;;;;4.53;1.40;;;3.50;99.90;;;;;;4997678;28;20088;-90
2022/04/08 06:48:39;;;;;;;6.53;2.03;;;3.50;99.90;;;;;;5004432;28;20059;-87
2022/04/08 06:51:07;;;;;;;10.25;2.40;;;3.60;99.90;;;;;;5027208;28;20037;-85
2022/04/08 06:53:36;;;;;;;7.60;1.98;;;3.70;99.90;;;;;;5014007;28;20785;-85
2022/04/08 06:56:06;;;;;;;3.97;1.88;;;3.70;99.90;;;;;;5010804;28;20075;-86
2022/04/08 06:58:38;;;;;;;4.65;1.80;;;3.80;99.90;;;;;;5031670;28;20045;-85
2022/04/08 07:01:06;;;;;;;3.95;1.40;;;3.90;99.90;;;;;;5011732;28;20041;-86
2022/04/08 07:03:35;;;;;;;3.95;1.70;;;3.80;99.90;;;;;;5007137;28;20049;-86
2022/04/08 07:06:05;;;;;;;10.75;1.95;;;3.90;99.90;;;;;;5025872;28;20140;-85
2022/04/08 07:08:33;;;;;;;5.68;2.25;;;4.00;99.90;;;;;;5015036;28;20079;-85
2022/04/08 07:10:59;;;;;;;3.58;1.75;;;3.90;99.90;;;;;;5016725;28;20087;-85
2022/04/08 07:13:25;;;;;;;7.32;2.10;;;3.80;99.90;;;;;;5014767;28;20446;-86
2022/04/08 07:16:00;;;;;;;7.35;2.15;;;3.80;99.90;;;;;;5039620;28;20068;-85
2022/04/08 07:18:27;;;;;;;7.82;3.05;;;3.90;99.90;;;;;;5014101;28;20111;-87
2022/04/08 07:20:55;;;;;;;7.32;2.00;;;4.00;99.90;;;;;;5022639;28;20736;-86
2022/04/08 07:23:26;;;;;;;7.97;3.05;;;4.30;99.90;;;;;;5013192;28;20041;-85
2022/04/08 07:25:59;;;;;;;5.90;1.73;;;4.50;99.90;;;;;;5040592;28;20060;-88
2022/04/08 07:28:27;;;;;;;4.65;2.15;;;4.80;99.90;;;;;;5002244;28;20041;-89
2022/04/08 07:30:58;;;;;;;5.63;2.20;;;5.00;99.90;;;;;;5012462;28;20041;-89
2022/04/08 07:33:26;;;;;;;6.30;2.20;;;4.80;99.90;;;;;;5033507;28;20079;-88
2022/04/08 07:35:52;;;;;;;7.25;2.08;;;4.60;99.90;;;;;;5027034;28;20052;-84
2022/04/08 07:38:18;;;;;;;8.27;2.70;;;4.50;99.90;;;;;;5012286;28;20298;-85
2022/04/08 07:40:46;;;;;;;9.05;2.25;;;4.30;99.90;;;;;;5001151;28;20482;-85
2022/04/08 07:43:19;;;;;;;7.63;1.40;;;4.30;99.90;;;;;;5020372;28;20045;-86
2022/04/08 07:45:45;;;;;;;5.03;1.40;;;4.30;99.90;;;;;;4996574;28;20469;-85
2022/04/08 07:48:11;;;;;;;4.53;1.80;;;4.20;99.90;;;;;;5013006;28;20107;-84
2022/04/08 07:50:37;;;;;;;9.52;3.25;;;4.30;99.90;;;;;;5013414;28;20053;-84
2022/04/08 07:53:04;;;;;;;4.53;1.70;;;4.40;99.90;;;;;;5013186;28;20045;-85
2022/04/08 07:55:29;;;;;;;8.90;2.10;;;4.70;99.90;;;;;;5003243;28;20486;-84
2022/04/08 07:57:55;;;;;;;7.70;2.60;;;5.20;99.90;;;;;;5033433;28;20056;-85
2022/04/08 08:00:28;;;;;;;10.00;2.60;;;5.30;99.90;;;;;;5017236;28;20497;-87
2022/04/08 08:02:55;;;;;;;9.00;2.92;;;5.40;99.90;;;;;;5016742;28;20044;-86
2022/04/08 08:05:23;;;;;;;4.97;2.33;;;5.20;99.90;;;;;;5032873;28;20075;-85
2022/04/08 08:07:57;;;;;;;8.10;2.50;;;5.10;99.90;;;;;;5016566;28;20512;-85
2022/04/08 08:10:25;;;;;;;5.88;1.90;;;5.00;99.90;;;;;;5032656;28;20143;-85
2022/04/08 08:12:52;;;;;;;10.18;3.60;;;5.00;99.90;;;;;;5016574;28;20052;-84
2022/04/08 08:15:19;;;;;;;7.78;3.90;;;5.10;99.90;;;;;;5007811;28;20131;-85
2022/04/08 08:17:45;;;;;;;8.10;3.42;;;5.10;99.90;;;;;;5001197;28;20052;-90
2022/04/08 08:20:13;;;;;;;5.95;2.10;;;5.10;99.90;;;;;;5014056;28;20137;-86
2022/04/08 08:22:45;;;;;;;9.77;3.55;;;5.10;99.90;;;;;;5036122;28;20045;-87
2022/04/08 08:25:13;;;;;;;6.28;2.67;;;5.10;99.90;;;;;;5023567;28;20115;-85
2022/04/08 08:27:55;;;;;;;12.80;3.63;;;5.30;99.90;;;;;;5028286;28;20119;-89
2022/04/08 08:30:27;;;;;;;11.57;3.80;;;5.40;99.90;;;;;;5041716;28;20056;-91
2022/04/08 08:33:04;;;;;;;7.40;2.55;;;5.70;99.90;;;;;;5027431;28;20133;-91
2022/04/08 08:35:34;;;;;;;7.07;2.75;;;5.90;99.90;;;;;;5014847;28;20064;-90
2022/04/08 08:38:15;;;;;;;8.45;3.00;;;5.70;99.90;;;;;;5019888;28;20098;-92
2022/04/08 08:41:19;;;;;;;5.00;2.70;;;5.60;99.90;;;;;;5027862;28;20142;-91
2022/04/08 08:43:47;;;;;;;10.55;4.20;;;5.60;99.90;;;;;;5017133;28;20060;-92
2022/04/08 08:46:18;;;;;;;15.43;5.63;;;5.70;99.90;;;;;;5017463;28;20438;-93
2022/04/08 08:48:46;;;;;;;7.35;2.70;;;6.20;99.90;;;;;;5027601;28;20753;-92
2022/04/08 08:51:13;;;;;;;10.57;2.40;;;6.50;99.90;;;;;;5018029;28;20067;-87
2022/04/08 08:53:47;;;;;;;4.55;2.20;;;6.50;99.90;;;;;;5013339;28;20095;-91
2022/04/08 08:56:15;;;;;;;8.68;2.40;;;6.50;99.90;;;;;;5009580;28;20049;-92
2022/04/08 08:58:44;;;;;;;7.22;2.40;;;6.40;99.90;;;;;;5028190;28;20052;-90
2022/04/08 09:01:11;;;;;;;7.03;2.40;;;6.50;99.90;;;;;;5005776;28;20048;-96
2022/04/08 09:03:37;;;;;;;7.95;3.15;;;6.50;99.90;;;;;;5016274;28;20437;-90
2022/04/08 09:06:09;;;;;;;9.18;2.72;;;6.70;99.90;;;;;;5038190;28;20037;-92
2022/04/08 09:08:38;;;;;;;7.55;2.78;;;6.80;99.90;;;;;;5027862;28;20136;-89
2022/04/08 09:11:06;;;;;;;8.25;2.03;;;6.90;99.90;;;;;;5020424;28;20163;-89
2022/04/08 09:13:49;;;;;;;7.05;1.80;;;7.10;99.90;;;;;;5032393;28;20045;-93
2022/04/08 09:16:26;;;;;;;9.07;1.88;;;7.20;99.90;;;;;;5018910;28;20048;-90
2022/04/08 09:18:59;;;;;;;5.68;1.80;;;7.00;99.90;;;;;;5038905;28;20049;-94
2022/04/08 09:21:26;;;;;;;10.98;1.92;;;6.80;99.90;;;;;;5020201;28;20112;-88
2022/04/08 09:23:52;;;;;;;6.18;1.90;;;6.50;99.90;;;;;;5018157;28;20065;-91
2022/04/08 09:26:19;;;;;;;9.10;1.92;;;6.50;99.90;;;;;;5015804;28;20045;-89
2022/04/08 09:28:47;;;;;;;8.73;1.92;;;6.60;99.90;;;;;;5020573;28;20049;-92
2022/04/08 09:31:23;;;;;;;4.32;1.80;;;6.70;99.90;;;;;;5015153;28;20064;-91
2022/04/08 09:33:52;;;;;;;5.63;2.03;;;6.80;99.90;;;;;;5024549;28;20052;-92
2022/04/08 09:36:30;;;;;;;7.32;1.92;;;7.00;99.90;;;;;;5019165;28;20048;-92
2022/04/08 09:38:56;;;;;;;7.47;1.85;;;7.10;99.90;;;;;;5016381;28;20045;-89
2022/04/08 09:41:42;;;;;;;10.25;2.40;;;7.20;99.90;;;;;;5018874;28;20582;-93
2022/04/08 09:44:09;;;;;;;9.77;2.33;;;7.00;99.90;;;;;;5009506;28;20095;-87
2022/04/08 09:46:36;;;;;;;10.15;2.30;;;7.50;99.90;;;;;;5014805;28;20380;-88
2022/04/08 09:49:11;;;;;;;9.23;2.50;;;7.50;99.90;;;;;;5018481;28;20118;-87
2022/04/08 09:51:39;;;;;;;9.82;2.25;;;7.70;99.90;;;;;;5018140;28;20053;-86
2022/04/08 09:54:07;;;;;;;9.10;2.35;;;7.90;99.90;;;;;;5013457;28;20053;-93
2022/04/08 09:57:03;;;;;;;8.85;2.42;;;8.60;99.90;;;;;;4993557;28;20045;-90
2022/04/08 09:59:35;;;;;;;9.50;3.20;;;9.20;99.90;;;;;;5010304;28;20041;-87
2022/04/08 10:02:03;;;;;;;9.23;2.17;;;9.80;99.90;;;;;;5004389;28;20072;-88
2022/04/08 10:04:29;;;;;;;6.93;2.28;;;9.80;99.90;;;;;;5013545;28;20056;-89
2022/04/08 10:06:55;;;;;;;6.95;2.15;;;9.70;99.90;;;;;;5016428;28;20525;-93
2022/04/08 10:09:24;;;;;;;10.10;1.92;;;9.30;99.90;;;;;;5015410;28;20049;-86
2022/04/08 10:11:57;;;;;;;6.07;2.33;;;8.70;99.90;;;;;;5015784;28;20049;-85
2022/04/08 10:14:49;;;;;;;7.57;1.60;;;8.30;99.90;;;;;;5033518;28;20052;-87
2022/04/08 10:17:17;;;;;;;8.00;1.70;;;8.70;99.90;;;;;;5012547;28;20132;-84
2022/04/08 10:19:42;;;;;;;4.63;1.40;;;9.40;99.90;;;;;;5033147;28;20064;-85
2022/04/08 10:22:20;;;;;;;6.93;1.77;;;9.50;99.90;;;;;;5016088;28;20044;-87
2022/04/08 10:25:16;;;;;;;6.10;1.50;;;10.10;99.90;;;;;;5014052;28;20041;-88
2022/04/08 10:27:44;;;;;;;6.40;1.70;;;10.80;99.90;;;;;;5028259;28;20059;-84
2022/04/08 10:30:15;;;;;;;9.20;1.85;;;11.60;99.90;;;;;;5011769;28;20044;-90
2022/04/08 10:32:48;;;;;;;5.78;1.20;;;11.70;99.90;;;;;;5010916;28;20151;-90
2022/04/08 10:35:19;;;;;;;6.88;1.90;;;11.50;99.90;;;;;;5018462;28;20150;-92
2022/04/08 10:38:38;;;;;;;7.38;1.60;;;10.80;99.90;;;;;;5015651;28;20092;-88
2022/04/08 10:41:09;;;;;;;6.65;1.33;;;9.90;99.90;;;;;;5012635;28;20052;-91
2022/04/08 10:43:48;;;;;;;6.05;1.83;;;9.30;99.90;;;;;;5034960;28;20047;-91
2022/04/08 10:46:32;;;;;;;6.15;1.65;;;9.30;99.90;;;;;;5028343;28;20045;-92
2022/04/08 10:49:08;;;;;;;8.93;1.50;;;9.60;99.90;;;;;;5035410;28;20049;-90
2022/04/08 10:51:47;;;;;;;4.75;2.00;;;9.30;99.90;;;;;;5018269;28;20627;-90
2022/04/08 10:54:20;;;;;;;5.53;2.17;;;8.70;99.90;;;;;;5034789;28;20059;-90
2022/04/08 10:57:08;;;;;;;6.80;2.63;;;8.70;99.90;;;;;;5018573;28;20044;-90
2022/04/08 10:59:36;;;;;;;7.60;2.30;;;8.80;99.90;;;;;;5018208;28;20195;-91
2022/04/08 11:02:20;;;;;;;2.33;1.10;;;9.60;99.90;;;;;;5034987;28;20071;-91
2022/04/08 11:04:49;;;;;;;4.50;1.40;;;9.90;99.90;;;;;;5034853;28;20061;-90
2022/04/08 11:07:17;;;;;;;4.55;1.48;;;10.20;99.90;;;;;;5017996;28;20203;-92
2022/04/08 11:09:58;;;;;;;5.32;1.27;;;10.70;99.90;;;;;;5020158;28;20057;-92
2022/04/08 11:12:36;;;;;;;4.15;1.90;;;11.10;99.90;;;;;;5012134;28;20045;-92
2022/04/08 11:15:31;;;;;;;5.30;1.65;;;11.60;99.90;;;;;;5020883;28;20110;-94
2022/04/08 11:18:10;;;;;;;;;;;;;;;;;;;;;
2022/04/08 11:20:46;;;;;;;6.53;1.35;;;11.70;99.90;;;;;;5032950;28;20048;-91
2022/04/08 11:23:27;;;;;;;6.95;1.58;;;12.00;99.90;;;;;;5004574;28;20041;-92
2022/04/08 11:25:56;;;;;;;2.80;1.20;;;11.50;99.90;;;;;;5017002;28;20049;-89
2022/04/08 11:28:29;;;;;;;5.95;1.10;;;11.70;99.90;;;;;;4998202;28;20053;-88
2022/04/08 11:30:58;;;;;;;4.20;1.27;;;11.90;99.90;;;;;;5015480;28;20045;-83
2022/04/08 11:33:25;;;;;;;3.15;1.00;;;12.00;99.90;;;;;;5011232;28;20046;-86
2022/04/08 11:35:57;;;;;;;2.70;1.00;;;11.60;99.90;;;;;;5025662;28;20053;-84
2022/04/08 11:38:23;;;;;;;2.50;0.80;;;11.20;99.90;;;;;;5002113;28;20041;-87
2022/04/08 11:40:49;;;;;;;4.22;1.15;;;10.10;99.90;;;;;;5001179;28;20087;-89
2022/04/08 11:43:17;;;;;;;2.90;1.23;;;9.10;99.90;;;;;;5028273;28;20064;-87
2022/04/08 11:45:47;;;;;;;7.72;1.88;;;8.20;99.90;;;;;;5021501;28;20099;-88
2022/04/08 11:48:15;;;;;;;7.20;1.60;;;7.60;99.90;;;;;;5033022;28;20044;-88
2022/04/08 11:50:42;;;;;;;4.68;1.25;;;7.70;99.90;;;;;;4992981;28;20072;-87
2022/04/08 11:53:22;;;;;;;5.88;1.50;;;8.00;99.90;;;;;;5018529;28;20095;-84
2022/04/08 11:55:55;;;;;;;9.05;1.92;;;8.00;99.90;;;;;;5027614;28;20059;-86
2022/04/08 11:58:22;;;;;;;3.17;0.90;;;8.10;99.90;;;;;;5013679;28;20053;-87
2022/04/08 12:00:58;;;;;;;7.20;1.60;;;8.10;99.90;;;;;;5006791;28;20048;-88
2022/04/08 12:03:29;;;;;;;6.35;1.08;;;8.40;99.90;;;;;;5037274;28;20562;-87
2022/04/08 12:05:58;;;;;;;5.68;1.80;;;8.80;99.90;;;;;;5019498;28;20049;-90
2022/04/08 12:08:24;;;;;;;6.03;1.00;;;9.90;99.90;;;;;;5004222;28;20060;-83
2022/04/08 12:10:53;;;;;;;6.50;1.30;;;10.50;99.90;;;;;;5011404;28;20128;-86
2022/04/08 12:13:22;;;;;;;4.90;1.30;;;10.60;99.90;;;;;;5018358;28;20124;-85
2022/04/08 12:15:49;;;;;;;2.42;0.93;;;10.90;99.90;;;;;;5034942;28;20051;-85
2022/04/08 12:18:23;;;;;;;5.38;1.00;;;11.00;99.90;;;;;;5018812;28;20045;-82
2022/04/08 12:21:06;;;;;;;4.40;1.08;;;10.30;99.90;;;;;;5014129;28;20495;-86
2022/04/08 12:23:35;;;;;;;8.82;5.13;;;10.30;99.90;;;;;;5018871;28;20131;-84
2022/04/08 12:26:05;;;;;;;6.00;1.10;;;11.50;99.90;;;;;;5015703;28;20041;-85
2022/04/08 12:28:40;;;;;;;4.78;1.10;;;12.60;99.90;;;;;;4999967;28;20053;-84
2022/04/08 12:31:18;;;;;;;2.28;0.88;;;11.60;99.90;;;;;;5018445;28;20051;-85
2022/04/08 12:33:44;;;;;;;3.30;0.80;;;11.00;99.90;;;;;;5016812;28;20040;-93
2022/04/08 12:36:21;;;;;;;4.35;1.58;;;11.40;99.90;;;;;;4998838;28;20577;-91
2022/04/08 12:38:50;;;;;;;3.95;0.80;;;12.50;99.90;;;;;;4992215;28;20127;-91
2022/04/08 12:41:18;;;;;;;4.57;0.95;;;13.00;99.90;;;;;;5037822;28;20041;-91
2022/04/08 12:43:46;;;;;;;2.92;0.80;;;12.50;99.90;;;;;;5019675;28;20040;-88
2022/04/08 12:46:17;;;;;;;3.92;1.02;;;12.30;99.90;;;;;;5037615;28;20056;-90
2022/04/08 12:48:42;;;;;;;2.00;0.65;;;12.20;99.90;;;;;;5029410;28;20094;-90
2022/04/08 12:51:08;;;;;;;4.22;0.90;;;12.00;99.90;;;;;;5000527;28;20044;-89
2022/04/08 12:53:54;;;;;;;2.40;0.75;;;12.50;99.90;;;;;;5009274;28;20537;-89
2022/04/08 12:56:24;;;;;;;2.08;0.77;;;12.90;99.90;;;;;;5004192;28;20490;-90
2022/04/08 12:58:53;;;;;;;3.83;0.90;;;12.70;99.90;;;;;;5031581;28;20045;-90
2022/04/08 13:01:29;;;;;;;3.67;1.58;;;13.40;99.90;;;;;;5018395;28;20453;-90
2022/04/08 13:03:55;;;;;;;2.15;0.88;;;14.00;99.90;;;;;;5017537;28;20070;-92